sensor_id;sensor_type;location;lat;lon;timestamp;temperature;humidity
26049;DHT22;13822;51.568;5.086;2023-04-03T00:02:06;4.90;99.90
26049;DHT22;13822;51.568;5.086;2023-04-03T00:07:27;4.80;99.90
26049;DHT22;13822;51.568;5.086;2023-04-03T00:12:33;4.70;99.90
26049;DHT22;13822;51.568;5.086;2023-04-03T00:17:39;4.70;99.90
26049;DHT22;13822;51.568;5.086;2023-04-03T00:29:45;4.60;99.90
26049;DHT22;13822;51.568;5.086;2023-04-03T05:22:15;2.70;99.90
26049;DHT22;13822;51.568;5.086;2023-04-03T05:27:17;2.60;99.90
26049;DHT22;13822;51.568;5.086;2023-04-03T05:32:19;2.60;99.90
26049;DHT22;13822;51.568;5.086;2023-04-03T05:37:21;2.60;99.90
26049;DHT22;13822;51.568;5.086;2023-04-03T05:42:23;2.60;99.90
26049;DHT22;13822;51.568;5.086;2023-04-03T05:47:25;2.50;99.90
26049;DHT22;13822;51.568;5.086;2023-04-03T05:52:31;2.60;99.90
26049;DHT22;13822;51.568;5.086;2023-04-03T05:57:35;2.60;99.90
26049;DHT22;13822;51.568;5.086;2023-04-03T06:02:37;2.60;99.90
26049;DHT22;13822;51.568;5.086;2023-04-03T06:07:39;2.50;99.90
26049;DHT22;13822;51.568;5.086;2023-04-03T06:12:42;2.50;99.90
26049;DHT22;13822;51.568;5.086;2023-04-03T06:17:44;2.60;99.90
26049;DHT22;13822;51.568;5.086;2023-04-03T06:22:45;2.60;99.90
26049;DHT22;13822;51.568;5.086;2023-04-03T06:27:47;2.60;99.90
26049;DHT22;13822;51.568;5.086;2023-04-03T06:32:49;2.70;99.90
26049;DHT22;13822;51.568;5.086;2023-04-03T06:37:51;2.70;99.90
26049;DHT22;13822;51.568;5.086;2023-04-03T06:42:53;2.70;99.90
26049;DHT22;13822;51.568;5.086;2023-04-03T06:47:55;2.70;99.90
26049;DHT22;13822;51.568;5.086;2023-04-03T06:52:57;2.70;99.90
26049;DHT22;13822;51.568;5.086;2023-04-03T06:57:59;2.70;99.90
26049;DHT22;13822;51.568;5.086;2023-04-03T07:03:02;2.80;99.90
26049;DHT22;13822;51.568;5.086;2023-04-03T07:08:04;2.90;99.90
26049;DHT22;13822;51.568;5.086;2023-04-03T07:13:06;3.00;99.90
26049;DHT22;13822;51.568;5.086;2023-04-03T07:18:08;3.00;99.90
26049;DHT22;13822;51.568;5.086;2023-04-03T07:23:10;3.10;99.90
26049;DHT22;13822;51.568;5.086;2023-04-03T07:28:12;3.20;99.90
26049;DHT22;13822;51.568;5.086;2023-04-03T07:33:15;3.20;99.90
26049;DHT22;13822;51.568;5.086;2023-04-03T07:38:18;3.30;99.90
26049;DHT22;13822;51.568;5.086;2023-04-03T07:43:21;3.40;99.90
26049;DHT22;13822;51.568;5.086;2023-04-03T07:48:24;3.50;99.90
26049;DHT22;13822;51.568;5.086;2023-04-03T07:53:27;3.60;99.90
26049;DHT22;13822;51.568;5.086;2023-04-03T07:58:29;3.70;99.90
26049;DHT22;13822;51.568;5.086;2023-04-03T08:03:31;3.80;99.90
26049;DHT22;13822;51.568;5.086;2023-04-03T08:08:34;3.90;99.90
26049;DHT22;13822;51.568;5.086;2023-04-03T08:13:37;4.00;99.90
26049;DHT22;13822;51.568;5.086;2023-04-03T08:18:39;4.10;99.90
26049;DHT22;13822;51.568;5.086;2023-04-03T08:23:41;4.30;99.90
26049;DHT22;13822;51.568;5.086;2023-04-03T08:28:43;4.40;99.90
26049;DHT22;13822;51.568;5.086;2023-04-03T08:33:46;4.50;99.90
26049;DHT22;13822;51.568;5.086;2023-04-03T08:38:48;4.60;99.90
26049;DHT22;13822;51.568;5.086;2023-04-03T08:49:32;4.80;99.90
26049;DHT22;13822;51.568;5.086;2023-04-03T08:54:40;4.90;99.90
26049;DHT22;13822;51.568;5.086;2023-04-03T08:59:57;5.00;99.90
26049;DHT22;13822;51.568;5.086;2023-04-03T09:10:47;5.30;99.90
26049;DHT22;13822;51.568;5.086;2023-04-03T09:15:50;5.50;99.90
26049;DHT22;13822;51.568;5.086;2023-04-03T09:26:17;5.80;99.10
26049;DHT22;13822;51.568;5.086;2023-04-03T09:31:23;5.90;90.90
26049;DHT22;13822;51.568;5.086;2023-04-03T09:36:40;6.00;81.60
26049;DHT22;13822;51.568;5.086;2023-04-03T09:47:00;6.30;77.80
26049;DHT22;13822;51.568;5.086;2023-04-03T09:52:28;6.50;65.90
26049;DHT22;13822;51.568;5.086;2023-04-03T09:57:32;6.60;65.50
26049;DHT22;13822;51.568;5.086;2023-04-03T10:02:36;6.70;61.60
26049;DHT22;13822;51.568;5.086;2023-04-03T10:07:39;6.90;60.80
26049;DHT22;13822;51.568;5.086;2023-04-03T10:13:05;7.10;58.90
26049;DHT22;13822;51.568;5.086;2023-04-03T10:23:28;7.50;59.30
26049;DHT22;13822;51.568;5.086;2023-04-03T10:34:28;8.00;55.10
26049;DHT22;13822;51.568;5.086;2023-04-03T10:39:52;8.20;57.60
26049;DHT22;13822;51.568;5.086;2023-04-03T11:05:44;9.40;43.20
26049;DHT22;13822;51.568;5.086;2023-04-03T11:10:49;9.50;43.30
26049;DHT22;13822;51.568;5.086;2023-04-03T11:15:53;9.90;45.10
26049;DHT22;13822;51.568;5.086;2023-04-03T11:21:00;10.30;48.10
26049;DHT22;13822;51.568;5.086;2023-04-03T11:26:13;10.90;43.30
26049;DHT22;13822;51.568;5.086;2023-04-03T11:31:25;11.20;38.20
26049;DHT22;13822;51.568;5.086;2023-04-03T11:36:32;11.10;41.20
26049;DHT22;13822;51.568;5.086;2023-04-03T11:41:38;11.60;41.20
26049;DHT22;13822;51.568;5.086;2023-04-03T11:46:48;11.90;43.40
26049;DHT22;13822;51.568;5.086;2023-04-03T11:51:58;12.30;40.20
26049;DHT22;13822;51.568;5.086;2023-04-03T11:57:07;12.40;38.20
26049;DHT22;13822;51.568;5.086;2023-04-03T12:02:41;12.20;38.90
26049;DHT22;13822;51.568;5.086;2023-04-03T12:29:12;14.40;38.60
26049;DHT22;13822;51.568;5.086;2023-04-03T12:39:48;14.20;32.50
26049;DHT22;13822;51.568;5.086;2023-04-03T12:44:56;13.90;32.70
26049;DHT22;13822;51.568;5.086;2023-04-03T12:50:28;13.40;35.80
26049;DHT22;13822;51.568;5.086;2023-04-03T12:55:34;13.60;35.20
26049;DHT22;13822;51.568;5.086;2023-04-03T13:00:36;13.90;32.70
26049;DHT22;13822;51.568;5.086;2023-04-03T13:05:40;13.90;34.30
26049;DHT22;13822;51.568;5.086;2023-04-03T13:10:54;13.70;30.30
26049;DHT22;13822;51.568;5.086;2023-04-03T13:15:58;13.50;32.70
26049;DHT22;13822;51.568;5.086;2023-04-03T13:21:03;13.60;35.00
26049;DHT22;13822;51.568;5.086;2023-04-03T13:26:10;14.00;34.30
26049;DHT22;13822;51.568;5.086;2023-04-03T13:36:20;14.00;33.30
26049;DHT22;13822;51.568;5.086;2023-04-03T13:41:31;13.50;35.00
26049;DHT22;13822;51.568;5.086;2023-04-03T13:46:35;13.30;34.40
26049;DHT22;13822;51.568;5.086;2023-04-03T13:51:37;13.30;35.60
26049;DHT22;13822;51.568;5.086;2023-04-03T13:56:40;13.50;35.70
26049;DHT22;13822;51.568;5.086;2023-04-03T14:01:45;14.00;36.40
26049;DHT22;13822;51.568;5.086;2023-04-03T14:06:51;14.60;36.70
26049;DHT22;13822;51.568;5.086;2023-04-03T14:11:55;14.40;33.90
26049;DHT22;13822;51.568;5.086;2023-04-03T14:17:01;14.20;36.00
26049;DHT22;13822;51.568;5.086;2023-04-03T14:27:28;14.00;34.00
26049;DHT22;13822;51.568;5.086;2023-04-03T14:32:39;13.70;35.80
26049;DHT22;13822;51.568;5.086;2023-04-03T14:37:42;13.80;35.60
26049;DHT22;13822;51.568;5.086;2023-04-03T14:42:44;14.10;36.50
26049;DHT22;13822;51.568;5.086;2023-04-03T14:47:53;14.20;34.50
26049;DHT22;13822;51.568;5.086;2023-04-03T14:52:57;13.90;34.30
26049;DHT22;13822;51.568;5.086;2023-04-03T14:58:00;14.10;37.10
26049;DHT22;13822;51.568;5.086;2023-04-03T15:03:02;14.40;34.20
26049;DHT22;13822;51.568;5.086;2023-04-03T15:08:04;14.20;34.50
26049;DHT22;13822;51.568;5.086;2023-04-03T15:13:08;14.20;37.00
26049;DHT22;13822;51.568;5.086;2023-04-03T15:18:11;14.20;35.30
26049;DHT22;13822;51.568;5.086;2023-04-03T15:23:17;14.00;34.80
26049;DHT22;13822;51.568;5.086;2023-04-03T15:28:24;13.80;33.90
26049;DHT22;13822;51.568;5.086;2023-04-03T15:33:32;13.60;34.30
26049;DHT22;13822;51.568;5.086;2023-04-03T15:38:34;13.60;36.30
26049;DHT22;13822;51.568;5.086;2023-04-03T15:43:37;13.50;36.20
26049;DHT22;13822;51.568;5.086;2023-04-03T15:48:39;13.30;36.70
26049;DHT22;13822;51.568;5.086;2023-04-03T15:53:41;13.20;37.10
26049;DHT22;13822;51.568;5.086;2023-04-03T15:58:44;12.90;36.40
26049;DHT22;13822;51.568;5.086;2023-04-03T16:03:46;12.50;37.70
26049;DHT22;13822;51.568;5.086;2023-04-03T16:08:48;12.10;37.50
26049;DHT22;13822;51.568;5.086;2023-04-03T16:13:50;12.00;38.90
26049;DHT22;13822;51.568;5.086;2023-04-03T16:18:53;11.90;39.30
26049;DHT22;13822;51.568;5.086;2023-04-03T16:23:57;11.50;39.80
26049;DHT22;13822;51.568;5.086;2023-04-03T16:29:00;11.10;40.90
26049;DHT22;13822;51.568;5.086;2023-04-03T16:34:02;10.70;41.40
26049;DHT22;13822;51.568;5.086;2023-04-03T16:39:04;10.50;42.10
26049;DHT22;13822;51.568;5.086;2023-04-03T16:44:06;10.40;43.10
26049;DHT22;13822;51.568;5.086;2023-04-03T16:49:09;10.30;44.30
26049;DHT22;13822;51.568;5.086;2023-04-03T16:54:11;10.00;43.70
26049;DHT22;13822;51.568;5.086;2023-04-03T16:59:14;9.80;44.20
26049;DHT22;13822;51.568;5.086;2023-04-03T17:04:17;9.50;44.50
26049;DHT22;13822;51.568;5.086;2023-04-03T17:09:21;9.30;45.60
26049;DHT22;13822;51.568;5.086;2023-04-03T17:14:24;9.10;45.70
26049;DHT22;13822;51.568;5.086;2023-04-03T17:19:27;9.00;45.80
26049;DHT22;13822;51.568;5.086;2023-04-03T17:24:29;8.90;46.80
26049;DHT22;13822;51.568;5.086;2023-04-03T17:29:31;8.90;47.60
26049;DHT22;13822;51.568;5.086;2023-04-03T17:34:33;8.80;48.10
26049;DHT22;13822;51.568;5.086;2023-04-03T17:39:37;8.80;49.00
26049;DHT22;13822;51.568;5.086;2023-04-03T17:44:39;8.70;49.70
26049;DHT22;13822;51.568;5.086;2023-04-03T17:49:41;8.60;49.80
26049;DHT22;13822;51.568;5.086;2023-04-03T17:54:43;8.50;50.40
26049;DHT22;13822;51.568;5.086;2023-04-03T17:59:45;8.40;50.70
26049;DHT22;13822;51.568;5.086;2023-04-03T18:04:50;8.30;51.50
26049;DHT22;13822;51.568;5.086;2023-04-03T18:09:55;8.20;52.20
26049;DHT22;13822;51.568;5.086;2023-04-03T18:14:58;8.00;52.40
26049;DHT22;13822;51.568;5.086;2023-04-03T18:20:02;8.00;53.50
26049;DHT22;13822;51.568;5.086;2023-04-03T18:25:04;7.90;53.90
26049;DHT22;13822;51.568;5.086;2023-04-03T18:30:08;7.70;54.50
26049;DHT22;13822;51.568;5.086;2023-04-03T18:35:14;7.60;54.80
26049;DHT22;13822;51.568;5.086;2023-04-03T18:40:16;7.50;55.50
26049;DHT22;13822;51.568;5.086;2023-04-03T18:45:20;7.40;55.60
26049;DHT22;13822;51.568;5.086;2023-04-03T18:50:23;7.40;56.10
26049;DHT22;13822;51.568;5.086;2023-04-03T19:08:51;7.10;57.60
26049;DHT22;13822;51.568;5.086;2023-04-03T19:14:13;7.00;57.90
26049;DHT22;13822;51.568;5.086;2023-04-03T19:20:41;6.90;58.40
26049;DHT22;13822;51.568;5.086;2023-04-03T19:26:28;6.80;59.10
26049;DHT22;13822;51.568;5.086;2023-04-03T19:32:00;6.70;59.80
26049;DHT22;13822;51.568;5.086;2023-04-03T19:37:28;6.60;60.30
